Time;durP1;ratioP1;P1;durP2;ratioP2;P2;SDS_P1;SDS_P2;PMS_P1;PMS_P2;Temp;Humidity;BMP_temperature;BMP_pressure;BME280_temperature;BME280_humidity;BME280_pressure;Samples;Min_cycle;Max_cycle;Signal;HPM_P1;HPM_P2
2022/08/08 00:02:07;;;;;;;17.23;12.77;;;;;;;21.85;96.98;99046.84;5057967;28;20165;-87
2022/08/08 00:05:01;;;;;;;17.47;13.63;;;;;;;21.46;97.50;98994.69;5056564;28;20173;-87
2022/08/08 00:07:50;;;;;;;19.07;13.83;;;;;;;21.37;97.55;98981.03;5054165;28;20183;-87
2022/08/08 00:10:48;;;;;;;17.60;13.43;;;;;;;22.00;97.57;99080.28;5055119;28;20169;-87
2022/08/08 00:13:23;;;;;;;16.93;14.20;;;;;;;21.47;98.19;99004.16;4974310;28;20192;-88
2022/08/08 00:15:58;;;;;;;17.63;14.27;;;;;;;21.37;97.82;98981.88;4974802;28;20211;-87
2022/08/08 00:18:53;;;;;;;19.30;14.30;;;;;;;22.03;98.13;99088.00;4973846;28;20211;-87
2022/08/08 00:21:25;;;;;;;17.87;14.73;;;;;;;21.27;97.82;98959.63;4957907;28;20184;-87
2022/08/08 00:23:56;;;;;;;20.63;15.83;;;;;;;22.05;98.53;99086.25;4973243;28;20183;-88
2022/08/08 00:26:29;;;;;;;23.77;17.47;;;;;;;20.50;100.00;98875.09;4973648;28;20663;-86
2022/08/08 00:29:06;;;;;;;22.97;18.77;;;;;;;21.67;100.00;99076.19;4973189;28;20191;-86
2022/08/08 00:31:37;;;;;;;25.10;20.00;;;;;;;20.66;100.00;98920.44;4973155;28;20246;-88
2022/08/08 00:37:00;;;;;;;29.87;22.30;;;;;;;21.50;100.00;99065.97;4972991;28;20223;-87
2022/08/08 00:39:39;;;;;;;29.83;22.23;;;;;;;21.45;100.00;99077.97;4972914;28;20403;-87
2022/08/08 00:42:26;;;;;;;29.47;22.83;;;;;;;21.44;100.00;99076.28;4973309;28;20581;-87
2022/08/08 00:45:10;;;;;;;34.37;26.23;;;;;;;21.38;100.00;99070.31;4973557;28;20211;-87
2022/08/08 00:48:08;;;;;;;31.90;25.93;;;;;;;21.16;100.00;99005.19;4973558;28;20179;-88
2022/08/08 00:50:54;;;;;;;32.33;26.17;;;;;;;21.64;100.00;99086.50;5021219;28;20193;-88
2022/08/08 00:53:38;;;;;;;31.93;25.47;;;;;;;21.58;100.00;99084.81;5053303;28;20165;-89
2022/08/08 00:57:01;;;;;;;26.83;21.47;;;;;;;21.41;100.00;99091.75;5052142;28;20212;-89
2022/08/08 01:00:02;;;;;;;23.53;19.50;;;;;;;21.36;100.00;99098.66;4972718;28;20230;-88
2022/08/08 01:02:33;;;;;;;24.07;18.67;;;;;;;20.48;100.00;98951.41;4972373;28;20191;-88
2022/08/08 01:05:20;;;;;;;25.43;19.50;;;;;;;21.33;100.00;99108.97;4972576;28;20180;-89
2022/08/08 01:07:54;;;;;;;25.87;19.97;;;;;;;21.11;100.00;99107.31;4956708;28;20299;-89
2022/08/08 01:10:57;;;;;;;25.13;18.93;;;;;;;21.17;100.00;99104.75;4972876;28;20657;-88
2022/08/08 01:13:34;;;;;;;27.70;20.57;;;;;;;21.37;100.00;99108.06;4972821;28;20180;-88
2022/08/08 01:16:23;;;;;;;28.37;20.07;;;;;;;21.41;100.00;99111.50;4972578;28;20691;-89
2022/08/08 01:18:57;;;;;;;26.97;19.53;;;;;;;21.44;100.00;99109.78;4972873;28;20200;-89
2022/08/08 01:22:20;;;;;;;25.03;18.73;;;;;;;21.40;100.00;99108.06;4956732;28;20632;-87
2022/08/08 01:25:19;;;;;;;26.87;20.90;;;;;;;21.45;100.00;99103.75;4896468;29;20738;-86
2022/08/08 01:28:05;;;;;;;29.33;20.00;;;;;;;20.46;100.00;98938.53;4895789;29;20202;-85
2022/08/08 01:30:58;;;;;;;23.80;19.23;;;;;;;21.49;100.00;99104.59;4896614;29;20195;-87
2022/08/08 01:33:43;;;;;;;26.93;22.07;;;;;;;21.26;100.00;99101.28;4897076;29;20279;-87
2022/08/08 01:36:30;;;;;;;30.57;22.63;;;;;;;21.26;100.00;99096.97;4976037;28;20258;-88
2022/08/08 01:39:38;;;;;;;26.80;21.37;;;;;;;20.54;100.00;99021.69;4996624;28;20207;-89
2022/08/08 01:42:13;;;;;;;25.53;19.70;;;;;;;20.72;100.00;99103.09;4937873;29;20197;-88
2022/08/08 01:44:41;;;;;;;24.20;19.10;;;;;;;20.82;100.00;99106.53;4942150;29;20263;-87
2022/08/08 01:47:25;;;;;;;25.10;19.77;;;;;;;19.83;100.00;98954.06;4938662;29;20178;-87
2022/08/08 01:50:17;;;;;;;24.83;18.87;;;;;;;19.28;100.00;98887.22;4947564;29;20186;-87
2022/08/08 01:52:58;;;;;;;23.60;18.47;;;;;;;20.23;100.00;99073.97;4938969;29;20181;-87
2022/08/08 01:55:39;;;;;;;24.40;18.80;;;;;;;20.50;100.00;99109.97;4959754;28;20191;-87
2022/08/08 01:58:29;;;;;;;23.17;18.67;;;;;;;19.86;100.00;98995.16;4980751;28;20196;-88
2022/08/08 02:01:19;;;;;;;27.07;19.87;;;;;;;20.70;100.00;99120.25;4981046;28;20180;-88
2022/08/08 02:03:59;;;;;;;23.33;17.83;;;;;;;20.83;100.00;99121.09;4980648;28;20222;-88
2022/08/08 02:06:33;;;;;;;24.83;18.27;;;;;;;20.96;100.00;99131.34;4979119;28;20183;-88
2022/08/08 02:09:23;;;;;;;27.20;21.77;;;;;;;20.10;100.00;99005.44;4959975;28;20258;-88
2022/08/08 02:11:49;;;;;;;33.57;27.13;;;;;;;20.89;100.00;99127.09;4976078;28;20678;-87
2022/08/08 02:14:28;;;;;;;30.47;23.73;;;;;;;20.19;100.00;99038.81;4976634;28;20738;-87
2022/08/08 02:17:10;;;;;;;29.73;22.07;;;;;;;20.10;100.00;99000.28;5050234;28;20653;-88
2022/08/08 02:19:45;;;;;;;27.37;20.67;;;;;;;18.77;100.00;98805.09;5057552;28;20204;-88
2022/08/08 02:22:32;;;;;;;22.60;17.67;;;;;;;18.50;100.00;98771.69;5058592;28;20197;-87
2022/08/08 02:25:10;;;;;;;22.03;18.40;;;;;;;18.91;100.00;98807.66;5062484;28;20162;-87
2022/08/08 02:28:01;;;;;;;24.50;18.13;;;;;;;20.67;100.00;99115.09;5062527;28;20266;-86
2022/08/08 02:31:28;;;;;;;21.90;17.27;;;;;;;20.78;100.00;99108.25;5059795;28;20236;-89
2022/08/08 02:34:17;;;;;;;19.33;16.23;;;;;;;20.59;100.00;99112.56;4979099;28;20668;-88
2022/08/08 02:37:18;;;;;;;20.57;16.20;;;;;;;20.68;100.00;99108.25;4962846;28;20270;-87
2022/08/08 02:40:14;;;;;;;20.60;16.67;;;;;;;20.66;100.00;99115.13;4970848;28;20199;-88
2022/08/08 02:43:21;;;;;;;22.60;17.20;;;;;;;20.08;100.00;99042.28;4903353;29;20670;-88
2022/08/08 02:46:14;;;;;;;20.03;16.63;;;;;;;20.23;100.00;99117.66;4902739;29;20187;-87
2022/08/08 02:49:17;;;;;;;23.17;16.73;;;;;;;20.24;100.00;99118.53;4904147;29;20179;-88
2022/08/08 02:52:13;;;;;;;21.27;16.90;;;;;;;20.10;100.00;99104.81;4865348;29;20306;-88
2022/08/08 02:54:44;;;;;;;22.97;17.80;;;;;;;20.19;100.00;99110.78;4864670;29;20282;-87
2022/08/08 02:57:43;;;;;;;24.07;19.50;;;;;;;20.19;100.00;99115.09;4863687;29;20192;-88
2022/08/08 03:00:17;;;;;;;26.07;21.40;;;;;;;17.67;100.00;98728.69;4863600;29;20207;-89
2022/08/08 03:02:51;;;;;;;30.03;22.83;;;;;;;19.95;100.00;99115.91;4861483;29;20187;-87
2022/08/08 03:05:41;;;;;;;30.63;23.13;;;;;;;19.94;100.00;99116.78;4864204;29;20191;-86
2022/08/08 03:08:51;;;;;;;28.40;21.00;;;;;;;18.99;100.00;98942.78;4867485;29;20207;-87
2022/08/08 03:11:45;;;;;;;26.77;20.53;;;;;;;18.91;100.00;98936.78;4916336;29;20682;-88
2022/08/08 03:14:46;;;;;;;30.63;21.93;;;;;;;20.16;100.00;99118.50;4919058;29;20253;-88
2022/08/08 03:17:28;;;;;;;36.03;27.53;;;;;;;19.32;100.00;98975.38;4917070;29;20182;-87
2022/08/08 03:20:20;;;;;;;52.17;39.87;;;;;;;20.32;100.00;99132.28;4954179;28;20221;-88
2022/08/08 03:22:52;;;;;;;34.13;27.23;;;;;;;19.78;100.00;99084.19;4994451;28;20682;-88
2022/08/08 03:25:21;;;;;;;34.67;25.67;;;;;;;19.82;100.00;99135.59;4993955;28;20178;-87
2022/08/08 03:27:55;;;;;;;32.37;23.90;;;;;;;19.88;100.00;99116.78;5036238;28;20189;-88
2022/08/08 03:30:21;;;;;;;28.37;21.77;;;;;;;19.77;100.00;99095.34;5054747;28;20176;-88
2022/08/08 03:35:39;;;;;;;27.90;21.00;;;;;;;20.18;100.00;99145.09;5054722;28;20220;-88
2022/08/08 03:38:05;;;;;;;25.70;20.57;;;;;;;19.05;100.00;98959.91;5054214;28;20220;-88
2022/08/08 03:40:31;;;;;;;29.90;22.33;;;;;;;19.87;100.00;99154.44;5054201;28;20226;-86
2022/08/08 03:42:57;;;;;;;34.00;26.20;;;;;;;16.95;100.00;98691.56;5054986;28;20169;-88
2022/08/08 03:45:24;;;;;;;34.47;27.80;;;;;;;17.59;100.00;98802.91;5053160;28;20201;-87
2022/08/08 03:48:23;;;;;;;37.87;28.23;;;;;;;18.55;100.00;98939.19;5060560;28;20277;-90
2022/08/08 03:50:49;;;;;;;35.27;28.33;;;;;;;15.67;100.00;98489.59;4964519;28;20217;-87
2022/08/08 03:53:16;;;;;;;41.40;29.93;;;;;;;15.74;100.00;98499.00;4981494;28;20180;-91
2022/08/08 03:55:45;;;;;;;38.70;26.40;;;;;;;19.65;100.00;99146.66;4959494;28;20220;-89
2022/08/08 03:58:20;;;;;;;39.37;27.30;;;;;;;17.32;100.00;98704.59;4959833;28;20207;-87
2022/08/08 04:00:54;;;;;;;43.60;27.63;;;;;;;19.50;100.00;99061.88;4974466;28;20200;-89
2022/08/08 04:03:21;;;;;;;39.40;27.13;;;;;;;19.11;100.00;99004.41;4974439;28;20230;-89
2022/08/08 04:05:47;;;;;;;34.60;26.87;;;;;;;19.23;100.00;99013.84;4975065;28;20236;-87
2022/08/08 04:08:21;;;;;;;35.97;27.07;;;;;;;20.13;100.00;99176.78;4978068;28;20192;-87
2022/08/08 04:10:48;;;;;;;33.50;25.83;;;;;;;20.34;100.00;99169.13;4987938;28;20197;-89
2022/08/08 04:13:15;;;;;;;36.47;27.00;;;;;;;18.85;100.00;98904.28;5000730;28;20211;-88
2022/08/08 04:15:40;;;;;;;39.83;28.97;;;;;;;19.06;100.00;98977.03;4992724;28;20171;-87
2022/08/08 04:18:06;;;;;;;40.63;30.10;;;;;;;18.67;100.00;98944.41;5010056;28;20199;-88
2022/08/08 04:20:31;;;;;;;36.17;26.47;;;;;;;18.37;100.00;98859.63;4993199;28;20187;-89
2022/08/08 04:22:57;;;;;;;32.43;23.07;;;;;;;20.05;100.00;99130.50;4992623;28;20207;-90
2022/08/08 04:25:22;;;;;;;30.57;22.17;;;;;;;18.37;100.00;98816.94;5000455;28;20199;-91
2022/08/08 04:27:48;;;;;;;28.13;20.73;;;;;;;19.19;100.00;98946.28;5071316;28;20164;-87
2022/08/08 04:30:13;;;;;;;31.77;22.30;;;;;;;20.34;100.00;99171.69;5046959;28;20161;-87
2022/08/08 04:32:39;;;;;;;27.00;20.57;;;;;;;19.66;100.00;99063.63;5079983;28;20292;-85
2022/08/08 04:35:05;;;;;;;23.13;18.13;;;;;;;20.21;100.00;99144.22;5068495;28;20184;-85
2022/08/08 04:37:30;;;;;;;23.80;17.80;;;;;;;19.91;100.00;99075.66;5050073;28;20235;-85
2022/08/08 04:39:56;;;;;;;23.93;17.07;;;;;;;20.73;100.00;99191.44;5051631;28;20177;-86
2022/08/08 04:42:24;;;;;;;28.57;20.97;;;;;;;19.50;100.00;98972.03;5051501;28;20185;-86
2022/08/08 04:44:49;;;;;;;31.43;21.20;;;;;;;21.02;100.00;99184.53;5051521;28;20188;-86
2022/08/08 04:47:15;;;;;;;21.33;17.13;;;;;;;20.85;100.00;99142.53;5052917;28;20185;-86
2022/08/08 04:49:41;;;;;;;22.13;16.40;;;;;;;19.58;100.00;98901.84;5071473;28;20214;-86
2022/08/08 04:52:07;;;;;;;21.10;16.27;;;;;;;21.49;100.00;99205.91;5069982;28;20571;-84
2022/08/08 04:54:32;;;;;;;23.47;17.23;;;;;;;20.83;100.00;99061.91;5071292;28;20184;-86
2022/08/08 04:56:57;;;;;;;22.47;16.83;;;;;;;21.36;100.00;99157.88;5068967;28;20184;-87
2022/08/08 04:59:23;;;;;;;32.13;21.70;;;;;;;21.17;100.00;99108.16;5070929;28;20267;-86
2022/08/08 05:01:48;;;;;;;28.73;21.90;;;;;;;20.91;100.00;99016.41;5071478;28;20190;-85
2022/08/08 05:04:14;;;;;;;27.07;20.67;;;;;;;22.10;100.00;99198.81;5071126;28;20185;-87
2022/08/08 05:06:40;;;;;;;23.57;17.73;;;;;;;21.94;98.95;99150.78;5071353;28;20771;-86
2022/08/08 05:09:05;;;;;;;19.67;14.70;;;;;;;22.30;96.92;99175.47;5071880;28;20180;-86
2022/08/08 05:11:31;;;;;;;17.23;14.60;;;;;;;22.64;95.33;99209.63;5070634;28;20177;-87
2022/08/08 05:13:56;;;;;;;20.20;13.93;;;;;;;22.29;94.13;99145.38;5071646;28;20617;-87
2022/08/08 05:16:22;;;;;;;19.93;14.40;;;;;;;21.03;93.23;98919.41;5071199;28;20185;-86
2022/08/08 05:18:47;;;;;;;20.00;14.37;;;;;;;22.75;92.88;99182.00;5087689;28;20303;-88
2022/08/08 05:21:13;;;;;;;21.57;14.80;;;;;;;22.39;92.12;99122.97;5070534;28;20184;-87
2022/08/08 05:23:39;;;;;;;17.53;14.67;;;;;;;22.21;89.94;99015.63;5070855;28;20895;-88
2022/08/08 05:26:05;;;;;;;18.60;13.30;;;;;;;22.34;88.05;99020.66;5051785;28;20212;-88
2022/08/08 05:28:30;;;;;;;19.73;14.40;;;;;;;23.57;86.79;99226.00;5054030;28;20181;-89
2022/08/08 05:30:55;;;;;;;18.67;15.27;;;;;;;23.21;87.73;99231.53;5044185;28;20179;-89
2022/08/08 05:33:21;;;;;;;16.70;13.70;;;;;;;22.07;88.87;99017.47;5058173;28;20178;-91
2022/08/08 05:35:48;;;;;;;16.87;13.70;;;;;;;23.00;89.09;99174.91;5058993;28;20225;-89
2022/08/08 05:38:16;;;;;;;21.33;15.23;;;;;;;22.28;88.60;99009.53;5058526;28;20209;-91
2022/08/08 05:40:46;;;;;;;17.17;14.53;;;;;;;24.00;87.79;99221.16;5064062;28;20188;-88
2022/08/08 05:43:18;;;;;;;19.77;15.17;;;;;;;24.44;86.47;99230.94;5061612;28;20688;-91
2022/08/08 05:45:45;;;;;;;18.93;15.43;;;;;;;23.47;84.98;99033.16;5052941;28;20187;-90
2022/08/08 05:48:11;;;;;;;18.20;14.47;;;;;;;23.73;83.79;99056.94;5056632;28;20188;-91
2022/08/08 05:50:36;;;;;;;15.27;13.50;;;;;;;24.94;82.80;99237.94;5072082;28;20189;-90
2022/08/08 05:53:02;;;;;;;14.67;12.70;;;;;;;24.65;80.60;99191.75;5058030;28;20260;-89
2022/08/08 05:55:29;;;;;;;18.77;13.37;;;;;;;25.20;80.26;99243.53;5058640;28;20256;-91
2022/08/08 05:57:58;;;;;;;15.03;13.27;;;;;;;23.48;80.66;98989.22;5059356;28;20870;-90
2022/08/08 06:00:29;;;;;;;15.40;12.87;;;;;;;21.33;81.32;98666.03;5056890;28;20185;-90
2022/08/08 06:03:11;;;;;;;15.40;12.80;;;;;;;24.27;78.52;99106.13;5054857;28;20197;-89
2022/08/08 06:05:58;;;;;;;15.07;11.77;;;;;;;23.95;77.17;99047.94;5058541;28;20185;-89
2022/08/08 06:08:28;;;;;;;20.10;12.47;;;;;;;25.10;77.30;99255.78;5067842;28;20188;-90
2022/08/08 06:10:55;;;;;;;15.87;11.97;;;;;;;25.09;75.11;99243.72;5069468;28;20209;-88
2022/08/08 06:13:21;;;;;;;15.90;11.57;;;;;;;23.44;74.22;98917.78;5065706;28;20247;-90
2022/08/08 06:15:49;;;;;;;14.87;11.53;;;;;;;23.57;73.37;98975.28;5056438;28;20185;-88
2022/08/08 06:18:16;;;;;;;14.57;11.53;;;;;;;25.24;72.77;99247.78;5053124;28;21025;-89
2022/08/08 06:20:43;;;;;;;14.17;10.63;;;;;;;24.12;72.23;99064.97;5053093;28;20197;-88
2022/08/08 06:23:09;;;;;;;18.10;11.53;;;;;;;24.98;71.71;99190.38;5055133;28;20961;-86
2022/08/08 06:25:36;;;;;;;15.67;11.10;;;;;;;25.16;71.02;99203.84;5069113;28;20185;-88
2022/08/08 06:28:10;;;;;;;13.80;10.50;;;;;;;25.16;71.18;99187.47;5056592;28;20181;-90
2022/08/08 06:30:37;;;;;;;13.80;10.87;;;;;;;24.59;69.91;99114.19;5053453;28;20189;-89
2022/08/08 06:33:09;;;;;;;15.20;11.33;;;;;;;25.48;71.15;99244.75;5039091;28;20228;-88
2022/08/08 06:35:35;;;;;;;16.77;11.90;;;;;;;25.93;68.99;99247.34;5051931;28;20222;-88
2022/08/08 06:38:04;;;;;;;16.43;12.20;;;;;;;25.10;69.15;99107.25;5052932;28;20196;-90
2022/08/08 06:40:31;;;;;;;13.63;11.27;;;;;;;25.56;68.28;99159.06;5050834;28;20859;-89
2022/08/08 06:43:08;;;;;;;18.88;11.77;;;;;;;26.38;67.42;99244.63;5052134;28;20186;-88
2022/08/08 06:45:36;;;;;;;15.57;11.50;;;;;;;25.83;65.72;99116.97;5051534;28;20557;-91
2022/08/08 06:48:02;;;;;;;15.73;10.63;;;;;;;26.43;66.23;99254.03;5052683;28;20261;-89
2022/08/08 06:50:31;;;;;;;12.93;11.02;;;;;;;26.79;64.85;99238.50;5052514;28;20194;-87
2022/08/08 06:52:59;;;;;;;16.95;10.77;;;;;;;26.41;64.52;99157.19;5052322;28;20278;-88
2022/08/08 06:55:25;;;;;;;12.65;10.38;;;;;;;26.79;65.26;99229.84;5054418;28;20215;-84
2022/08/08 06:57:51;;;;;;;15.25;10.25;;;;;;;26.44;64.80;99155.38;5072255;28;20219;-87
2022/08/08 07:00:17;;;;;;;14.40;10.45;;;;;;;27.72;61.76;99252.53;5073139;28;20207;-87
2022/08/08 07:02:50;;;;;;;13.45;10.20;;;;;;;26.59;60.88;99099.59;5069829;28;20661;-87
2022/08/08 07:05:18;;;;;;;13.00;10.30;;;;;;;27.25;61.81;99258.16;5047283;28;20313;-85
2022/08/08 07:07:52;;;;;;;12.32;10.18;;;;;;;27.48;61.33;99266.22;5067753;28;20571;-88
2022/08/08 07:10:20;;;;;;;18.52;10.70;;;;;;;27.27;62.28;99258.97;5071635;28;20184;-84
2022/08/08 07:12:53;;;;;;;14.63;11.25;;;;;;;28.02;61.76;99259.50;5069209;28;20208;-88
2022/08/08 07:15:35;;;;;;;16.63;11.93;;;;;;;28.20;60.04;99223.44;5053228;28;20514;-86
2022/08/08 07:18:06;;;;;;;12.60;10.73;;;;;;;28.82;58.73;99263.16;5051647;28;20218;-85
2022/08/08 07:20:37;;;;;;;14.52;12.27;;;;;;;28.88;57.56;99268.19;5064326;28;20182;-86
2022/08/08 07:23:10;;;;;;;14.90;11.05;;;;;;;28.57;59.54;99252.63;5065063;28;20557;-86
2022/08/08 07:25:40;;;;;;;12.32;10.57;;;;;;;29.01;57.24;99253.84;5051894;28;20184;-87
2022/08/08 07:28:14;;;;;;;11.73;10.52;;;;;;;28.84;57.67;99262.25;5052264;28;20191;-86
2022/08/08 07:30:40;;;;;;;13.40;10.43;;;;;;;27.00;56.94;98914.03;5051721;28;20725;-86
2022/08/08 07:33:10;;;;;;;12.02;9.70;;;;;;;28.60;55.87;99201.28;5053822;28;20247;-86
2022/08/08 07:35:39;;;;;;;13.93;8.65;;;;;;;28.77;54.01;99255.50;5053087;28;20860;-86
2022/08/08 07:38:05;;;;;;;10.02;8.98;;;;;;;28.30;54.98;99154.53;5052486;28;20209;-87
2022/08/08 07:40:34;;;;;;;12.50;9.23;;;;;;;29.20;54.63;99244.50;5054316;28;20197;-88
2022/08/08 07:43:01;;;;;;;10.93;9.50;;;;;;;29.73;52.96;99260.91;5056274;28;20773;-89
2022/08/08 07:45:28;;;;;;;11.35;9.23;;;;;;;29.98;53.03;99260.91;5055042;28;20306;-88
2022/08/08 07:47:54;;;;;;;10.52;9.43;;;;;;;29.09;52.13;99098.00;5064897;28;20196;-87
2022/08/08 07:50:20;;;;;;;11.40;7.85;;;;;;;29.85;49.16;99225.72;5074872;28;20176;-86
2022/08/08 07:52:49;;;;;;;10.07;8.13;;;;;;;29.98;49.45;99258.28;5073745;28;20176;-87
2022/08/08 07:55:28;;;;;;;8.40;6.53;;;;;;;29.40;46.67;99168.19;5072784;28;20201;-87
2022/08/08 07:58:18;;;;;;;12.75;7.32;;;;;;;29.45;47.66;99221.03;5064866;28;20283;-87
2022/08/08 08:00:50;;;;;;;7.55;6.75;;;;;;;29.47;47.01;99255.78;5068841;28;20180;-87
2022/08/08 08:03:31;;;;;;;8.63;7.07;;;;;;;30.20;45.85;99259.19;5074169;28;20824;-87
2022/08/08 08:05:58;;;;;;;10.13;6.60;;;;;;;30.10;43.73;99130.72;5057032;28;20287;-87
2022/08/08 08:08:38;;;;;;;9.95;6.57;;;;;;;29.86;43.90;99172.59;5065937;28;20183;-88
2022/08/08 08:11:07;;;;;;;9.45;5.78;;;;;;;30.69;42.44;99261.63;5051958;28;20192;-85
2022/08/08 08:13:48;;;;;;;8.25;5.20;;;;;;;30.04;39.93;99094.41;5053796;28;20181;-86
2022/08/08 08:16:18;;;;;;;8.00;5.22;;;;;;;30.71;39.86;99147.38;5053729;28;20189;-86
2022/08/08 08:18:46;;;;;;;5.90;5.30;;;;;;;29.89;38.76;99032.34;5077991;28;20211;-87
2022/08/08 08:21:15;;;;;;;6.38;5.05;;;;;;;31.30;38.31;99180.63;5074925;28;20184;-84
2022/08/08 08:23:42;;;;;;;6.93;5.63;;;;;;;30.71;38.89;99112.56;5074382;28;20208;-89
2022/08/08 08:26:07;;;;;;;9.25;5.38;;;;;;;30.84;38.71;99124.19;5074014;28;20199;-87
2022/08/08 08:28:32;;;;;;;7.63;6.40;;;;;;;31.01;38.24;99141.81;5065294;28;20267;-88
2022/08/08 08:31:03;;;;;;;11.70;9.27;;;;;;;31.48;37.38;99130.13;5052962;28;20190;-87
2022/08/08 08:33:29;;;;;;;6.75;5.70;;;;;;;32.27;38.48;99244.31;5055288;28;20645;-85
2022/08/08 08:35:54;;;;;;;7.40;5.72;;;;;;;31.93;38.29;99197.84;5060100;28;20229;-86
2022/08/08 08:38:20;;;;;;;8.55;5.78;;;;;;;32.39;36.96;99228.00;5065384;28;20250;-86
2022/08/08 08:40:46;;;;;;;5.55;5.00;;;;;;;32.89;36.15;99229.06;5073123;28;20595;-86
2022/08/08 08:43:13;;;;;;;8.27;5.03;;;;;;;33.28;34.46;99249.84;5074160;28;20265;-88
2022/08/08 08:45:39;;;;;;;6.63;4.82;;;;;;;32.73;34.61;99246.47;5074954;28;20766;-87
2022/08/08 08:48:05;;;;;;;6.30;4.57;;;;;;;30.86;35.80;99078.75;5074941;28;20187;-88
2022/08/08 08:50:32;;;;;;;5.65;4.70;;;;;;;31.05;35.71;99088.44;5054585;28;20203;-88
2022/08/08 08:53:01;;;;;;;5.75;4.93;;;;;;;32.32;35.53;99187.28;5054421;28;20245;-89
2022/08/08 08:55:29;;;;;;;6.88;4.82;;;;;;;32.91;34.78;99211.44;5052338;28;20610;-85
2022/08/08 08:57:57;;;;;;;8.18;5.57;;;;;;;32.33;34.94;99113.00;5052993;28;20201;-85
2022/08/08 09:00:23;;;;;;;7.57;4.97;;;;;;;33.10;34.52;99221.94;5056401;28;20319;-87
2022/08/08 09:02:50;;;;;;;8.93;5.32;;;;;;;32.03;34.50;98948.53;5051556;28;20208;-86
2022/08/08 09:05:19;;;;;;;7.95;4.60;;;;;;;33.98;32.50;99227.78;5052699;28;20298;-84
2022/08/08 09:07:45;;;;;;;6.20;4.82;;;;;;;32.60;32.60;99090.69;5065949;28;20339;-86
2022/08/08 09:10:14;;;;;;;8.68;4.85;;;;;;;33.10;33.36;99102.03;5067516;28;20686;-87
2022/08/08 09:12:43;;;;;;;6.82;4.80;;;;;;;33.57;32.31;99159.94;5075173;28;20207;-86
2022/08/08 09:15:09;;;;;;;7.65;5.03;;;;;;;34.09;32.27;99214.94;5078732;28;20655;-86
2022/08/08 09:17:35;;;;;;;7.78;5.03;;;;;;;34.22;31.93;99208.91;5078427;28;20176;-86
2022/08/08 09:20:02;;;;;;;7.05;4.68;;;;;;;33.69;31.94;99133.00;5077715;28;20187;-86
2022/08/08 09:22:27;;;;;;;6.68;4.85;;;;;;;34.38;32.29;99201.00;5076866;28;20185;-83
2022/08/08 09:24:54;;;;;;;7.45;4.80;;;;;;;34.04;31.76;99204.63;5083751;28;20183;-86
2022/08/08 09:27:20;;;;;;;7.00;4.70;;;;;;;34.09;32.22;99204.44;5076238;28;20177;-84
2022/08/08 09:29:50;;;;;;;10.70;5.13;;;;;;;34.57;31.54;99206.09;5065568;28;20283;-83
2022/08/08 09:32:41;;;;;;;6.95;4.63;;;;;;;33.97;31.29;99148.09;5053178;28;20191;-86
2022/08/08 09:35:13;;;;;;;10.55;4.90;;;;;;;34.39;31.22;99177.25;4990047;28;20194;-86
2022/08/08 09:37:50;;;;;;;8.18;5.15;;;;;;;34.69;30.82;99206.25;5018382;28;20194;-84
2022/08/08 09:40:43;;;;;;;8.35;4.75;;;;;;;34.18;31.83;99194.25;4997930;28;20230;-85
2022/08/08 09:43:28;;;;;;;10.85;4.97;;;;;;;34.18;31.17;99194.25;4961001;28;20196;-87
2022/08/08 09:45:56;;;;;;;8.65;5.72;;;;;;;34.66;31.67;99198.53;4944819;29;20201;-85
2022/08/08 09:48:23;;;;;;;5.88;4.40;;;;;;;34.38;30.40;99099.31;4958497;28;20180;-86
2022/08/08 09:50:52;;;;;;;5.47;4.97;;;;;;;34.53;31.17;99173.81;4957271;28;20189;-86
2022/08/08 09:53:20;;;;;;;8.80;4.93;;;;;;;33.99;32.22;99071.81;4951481;28;20664;-86
2022/08/08 09:55:46;;;;;;;5.40;4.82;;;;;;;33.91;31.31;99144.97;4951699;28;20259;-85
2022/08/08 09:58:19;;;;;;;5.30;4.80;;;;;;;33.97;32.32;99179.63;4953698;28;20204;-86
2022/08/08 10:00:47;;;;;;;7.10;4.70;;;;;;;33.94;30.97;99073.84;4936488;28;20705;-86
2022/08/08 10:03:15;;;;;;;6.47;4.45;;;;;;;34.60;30.00;99158.59;4951687;28;20247;-87
2022/08/08 10:05:41;;;;;;;8.63;4.75;;;;;;;34.25;30.63;99122.00;4921578;29;20705;-86
2022/08/08 10:08:06;;;;;;;6.47;4.70;;;;;;;34.41;30.53;99153.50;4935371;28;20196;-86
2022/08/08 10:10:39;;;;;;;7.05;4.70;;;;;;;33.90;30.37;99019.81;4952399;28;20196;-86
2022/08/08 10:13:25;;;;;;;9.30;4.88;;;;;;;34.47;30.22;99069.03;5019235;28;20240;-87
2022/08/08 10:15:56;;;;;;;5.55;4.40;;;;;;;34.37;30.48;99178.28;5074083;28;20192;-87
2022/08/08 10:18:29;;;;;;;5.75;4.50;;;;;;;34.64;30.68;99168.81;5073987;28;20242;-87
2022/08/08 10:21:06;;;;;;;7.00;4.70;;;;;;;35.04;29.99;99163.84;5075577;28;20194;-87
2022/08/08 10:23:40;;;;;;;6.45;4.70;;;;;;;35.20;30.40;99165.50;5074002;28;20221;-86
2022/08/08 10:26:14;;;;;;;6.63;4.35;;;;;;;34.86;29.04;99068.47;5074548;28;20584;-87
2022/08/08 10:28:55;;;;;;;6.65;4.50;;;;;;;34.96;29.07;99146.75;5072228;28;20218;-85
2022/08/08 10:34:16;;;;;;;7.75;4.82;;;;;;;33.73;31.24;99078.53;5073927;28;20218;-84
2022/08/08 10:36:43;;;;;;;7.75;4.30;;;;;;;34.05;29.70;99161.66;5071985;28;20365;-82
2022/08/08 10:39:10;;;;;;;4.72;4.00;;;;;;;34.04;30.18;99159.97;5071903;28;20201;-84
2022/08/08 10:41:37;;;;;;;5.93;4.22;;;;;;;33.87;29.72;99098.78;5071967;28;20788;-84
2022/08/08 10:44:04;;;;;;;7.35;4.53;;;;;;;34.34;29.51;99097.78;5072229;28;20187;-85
2022/08/08 10:46:30;;;;;;;6.78;4.20;;;;;;;34.74;28.80;99091.09;5072907;28;20216;-84
2022/08/08 10:48:57;;;;;;;7.88;4.50;;;;;;;34.89;28.88;99141.94;5073747;28;20242;-85
2022/08/08 10:51:35;;;;;;;7.65;4.28;;;;;;;34.55;28.23;99142.19;5061913;28;20200;-85
2022/08/08 10:54:01;;;;;;;4.78;4.25;;;;;;;34.75;28.26;99126.13;5053454;28;20264;-84
2022/08/08 10:56:32;;;;;;;5.25;3.80;;;;;;;34.76;27.80;99069.94;5053524;28;20223;-85
2022/08/08 10:59:06;;;;;;;6.60;4.10;;;;;;;34.80;28.68;99118.81;5055702;28;20299;-84
2022/08/08 11:01:32;;;;;;;5.60;4.18;;;;;;;35.50;28.24;99132.03;5072386;28;20207;-84
2022/08/08 11:03:59;;;;;;;7.47;4.10;;;;;;;35.52;27.91;99121.38;5075459;28;20193;-84
2022/08/08 11:06:35;;;;;;;9.63;4.00;;;;;;;34.55;27.86;99134.31;5051933;28;20189;-84
2022/08/08 11:09:06;;;;;;;9.18;3.92;;;;;;;34.42;27.80;99101.78;5052367;28;20201;-84
2022/08/08 11:11:45;;;;;;;7.43;4.10;;;;;;;34.25;28.05;99116.75;5050986;28;20690;-83
2022/08/08 11:14:13;;;;;;;7.63;3.80;;;;;;;34.40;28.64;99120.25;5067137;28;20186;-83
2022/08/08 11:16:44;;;;;;;7.22;4.30;;;;;;;34.49;28.03;99116.25;5068076;28;20187;-84
2022/08/08 11:19:09;;;;;;;7.30;3.50;;;;;;;33.31;28.51;98921.59;5067058;28;20887;-83
2022/08/08 11:21:40;;;;;;;7.95;3.63;;;;;;;34.73;27.50;99106.94;5067494;28;20173;-84
2022/08/08 11:24:10;;;;;;;5.90;3.75;;;;;;;34.70;27.24;99107.13;5052276;28;20200;-85
2022/08/08 11:26:37;;;;;;;4.25;3.40;;;;;;;34.25;27.64;99100.97;5049294;28;20600;-84
2022/08/08 11:29:04;;;;;;;6.03;3.70;;;;;;;33.93;28.42;99108.94;5049171;28;20182;-84
2022/08/08 11:31:39;;;;;;;6.75;4.30;;;;;;;33.13;28.87;99033.66;5047491;28;20173;-85
2022/08/08 11:34:06;;;;;;;6.32;4.20;;;;;;;33.77;28.54;99019.63;5062750;28;20249;-84
2022/08/08 11:36:33;;;;;;;9.70;3.92;;;;;;;34.61;28.12;99108.50;5068521;28;20708;-84
2022/08/08 11:39:01;;;;;;;6.85;3.92;;;;;;;34.22;28.38;99022.28;5068504;28;20208;-84
2022/08/08 11:41:27;;;;;;;8.52;3.75;;;;;;;34.49;28.04;99046.09;5070689;28;20184;-84
2022/08/08 11:43:54;;;;;;;6.97;3.80;;;;;;;35.77;26.52;99097.00;5067882;28;20680;-84
2022/08/08 11:46:23;;;;;;;6.47;4.10;;;;;;;36.74;25.67;99093.25;5068100;28;20663;-84
2022/08/08 11:48:49;;;;;;;6.47;3.95;;;;;;;36.96;25.58;99038.91;5069698;28;20184;-84
2022/08/08 11:51:17;;;;;;;4.40;3.40;;;;;;;35.92;25.94;98922.09;5069866;28;20183;-83
2022/08/08 11:53:43;;;;;;;5.63;3.70;;;;;;;35.90;25.13;98984.59;5059634;28;20656;-83
2022/08/08 11:56:18;;;;;;;12.18;4.47;;;;;;;36.52;25.70;99093.84;5049173;28;20188;-83
2022/08/08 11:58:44;;;;;;;7.57;3.80;;;;;;;36.41;24.84;99031.22;5051307;28;20204;-84